Aaron Joseph — WCV9877 — position and weather

sailwx.info

Track history (hours):
 
Tides and Currents Weather Stations Pressure Air Temp Water Temp Dewpoint Dewpoint Depression Visibility Wind Speed Wind Dir Waves Ship Positions

Aaron Joseph

Owner: AARON JOSEPH INC, GOLDEN MEADOW, LA. More information available from US FCC via Universal Licensing System and Coast Guard Vessel Documentation Center.

Last reported at 2017-Aug-13 10:41 UTC. Time now 2017-Sep-23 00:32 UTC.
Position N 30°04' W 093°38'.
Warning: this ship's position is 40 days out of date.

; draft 2.5 m.

Type: Tug. MMSI: 367028680.

Date/timePositionNaut miles runAvg speedWind from/ knotsBaromVisibWave heightAir tempDewpointWater temp
2017-Aug-13 10:41N 30°04' W 093°38'1 5.1
2017-Aug-13 10:27N 30°04' W 093°37'2 5.3
2017-Aug-13 10:00N 30°04' W 093°34'3 5.2
2017-Aug-13 09:30N 30°04' W 093°31'2 4.7
2017-Aug-13 09:01N 30°04' W 093°28'2 4.7
2017-Aug-13 08:31N 30°04' W 093°26'2 4.3
2017-Aug-13 08:01N 30°04' W 093°23'2 4.5
2017-Aug-13 07:30N 30°04' W 093°21'1 1.9
2017-Aug-13 07:01N 30°05' W 093°20'1 1.9
2017-Aug-13 06:31N 30°05' W 093°19'2 3.4
2017-Aug-13 06:00N 30°05' W 093°18'0 0.3
2017-Aug-13 05:31N 30°05' W 093°17'1 2.4
2017-Aug-13 05:01N 30°04' W 093°16'0 0.5
2017-Aug-13 04:31N 30°04' W 093°16'2 4.5
2017-Aug-13 04:01N 30°06' W 093°18'0 0.3
2017-Aug-13 03:31N 30°06' W 093°18'2 3.6
2017-Aug-13 03:01N 30°05' W 093°20'0 0.6
2017-Aug-13 02:30N 30°04' W 093°20'0 0.0
2017-Aug-13 02:01N 30°04' W 093°20'0 0.0
2017-Aug-13 01:31N 30°04' W 093°20'0 0.0
2017-Aug-13 01:00N 30°04' W 093°20'0 0.0
2017-Aug-13 00:30N 30°04' W 093°20'0 0.0
2017-Aug-13 00:01N 30°04' W 093°20'0 0.0
2017-Aug-12 23:30N 30°04' W 093°20'0 0.0
2017-Aug-12 23:00N 30°04' W 093°20'0 0.0
2017-Aug-12 22:31N 30°04' W 093°20'0 0.0
2017-Aug-12 22:00N 30°04' W 093°20'0 0.0
2017-Aug-12 21:31N 30°04' W 093°20'0 0.0
2017-Aug-12 21:01N 30°04' W 093°20'0 0.0
2017-Aug-12 20:31N 30°04' W 093°20'0 0.0
2017-Aug-12 20:01N 30°04' W 093°20'0 0.0
2017-Aug-12 19:30N 30°04' W 093°20'0 0.0
2017-Aug-12 19:01N 30°04' W 093°20'0 0.0
2017-Aug-12 18:31N 30°04' W 093°20'0 0.0
2017-Aug-12 18:01N 30°04' W 093°20'0 0.0
2017-Aug-12 17:31N 30°04' W 093°20'0 0.0
2017-Aug-12 17:00N 30°04' W 093°20'0 0.0
2017-Aug-12 16:31N 30°04' W 093°20'0 0.0
2017-Aug-12 16:01N 30°04' W 093°20'0 0.0
2017-Aug-12 15:31N 30°04' W 093°20'0 0.0
2017-Aug-12 15:01N 30°04' W 093°20'0 0.1
2017-Aug-12 14:30N 30°04' W 093°20'2 3.8
2017-Aug-12 14:01N 30°06' W 093°19'2 4.1
2017-Aug-12 13:30N 30°05' W 093°17'2 3.3
2017-Aug-12 13:01N 30°03' W 093°16'2 3.9
2017-Aug-12 12:31N 30°02' W 093°15'2 4.3
2017-Aug-12 12:01N 29°60' W 093°13'2 4.7
2017-Aug-12 11:31N 29°58' W 093°12'2 4.5
2017-Aug-12 11:00N 29°56' W 093°10'40 4.3
2017-Aug-12 01:45N 29°53' W 092°24'1 4.4
2017-Aug-12 01:27N 29°52' W 092°23'2 3.5
2017-Aug-12 01:00N 29°51' W 092°22'2 4.2
2017-Aug-12 00:31N 29°50' W 092°19'2 3.9
2017-Aug-12 00:01N 29°49' W 092°18'2 4.1
2017-Aug-11 23:31N 29°48' W 092°15'2 4.2
2017-Aug-11 23:01N 29°48' W 092°13'2 4.1
2017-Aug-11 22:31N 29°47' W 092°11'2 4.1
2017-Aug-11 22:01N 29°47' W 092°09'2 3.7
2017-Aug-11 21:31N 29°48' W 092°07'2 5.0
2017-Aug-11 21:00N 29°48' W 092°04'2 4.7
2017-Aug-11 20:31N 29°49' W 092°02'2 4.3
2017-Aug-11 20:01N 29°50' W 091°59'2 4.5
2017-Aug-11 19:29N 29°51' W 091°57'2 3.9
2017-Aug-11 19:00N 29°51' W 091°54'53 4.0
2017-Aug-11 05:52N 29°34' W 090°57'5 4.8
2017-Aug-11 04:49N 29°32' W 090°52'1 4.8
2017-Aug-11 04:30N 29°32' W 090°50'2 4.7
2017-Aug-11 04:00N 29°32' W 090°47'2 4.1
2017-Aug-11 03:31N 29°33' W 090°45'2 3.9
2017-Aug-11 03:01N 29°34' W 090°43'1 2.9
2017-Aug-11 02:31N 29°33' W 090°42'0 0.5
2017-Aug-11 02:01N 29°33' W 090°42'3 5.5
2017-Aug-11 01:31N 29°35' W 090°43'2 3.3
2017-Aug-11 01:01N 29°36' W 090°41'1 1.7
2017-Aug-11 00:31N 29°36' W 090°40'0 0.1
2017-Aug-11 00:00N 29°36' W 090°40'0 0.0
2017-Aug-10 23:30N 29°36' W 090°40'0 0.8
2017-Aug-10 23:00N 29°36' W 090°40'0 0.0
2017-Aug-10 22:30N 29°36' W 090°40'0 0.0
2017-Aug-10 22:00N 29°36' W 090°40'0 0.0
2017-Aug-10 21:30N 29°36' W 090°40'0 0.2
2017-Aug-10 21:00N 29°36' W 090°40'4 7.2
2017-Aug-10 20:31N 29°35' W 090°36'1 1.2
2017-Aug-10 20:00N 29°35' W 090°36'0 0.0
2017-Aug-10 19:30N 29°35' W 090°36'0 0.0
2017-Aug-10 19:00N 29°35' W 090°36'0 0.0
2017-Aug-10 18:30N 29°35' W 090°36'0 0.0
2017-Aug-10 17:56N 29°35' W 090°36'0 0.0
2017-Aug-10 17:30N 29°35' W 090°36'0 0.0
2017-Aug-10 17:00N 29°35' W 090°36'0 0.0
2017-Aug-10 16:30N 29°35' W 090°36'0 0.0
2017-Aug-10 16:00N 29°35' W 090°36'0 0.0
2017-Aug-10 15:28N 29°35' W 090°36'0 0.0
2017-Aug-10 14:45N 29°35' W 090°36'0 0.0
2017-Aug-10 14:29N 29°35' W 090°36'0 0.0
2017-Aug-10 14:00N 29°35' W 090°36'0 0.0
2017-Aug-10 13:21N 29°35' W 090°36'0 0.0
2017-Aug-10 12:54N 29°35' W 090°36'0 0.0
2017-Aug-10 12:28N 29°35' W 090°36'0 0.0
2017-Aug-10 11:58N 29°35' W 090°36'0 0.0
2017-Aug-10 11:29N 29°35' W 090°36'0 0.0
2017-Aug-10 10:58N 29°35' W 090°36'0 0.0
2017-Aug-10 10:26N 29°35' W 090°36'0 0.0
2017-Aug-10 09:58N 29°35' W 090°36'0 0.0
2017-Aug-10 09:30N 29°35' W 090°36'0 0.0
2017-Aug-10 09:00N 29°35' W 090°36'0 0.0
2017-Aug-10 08:30N 29°35' W 090°36'0 0.0
2017-Aug-10 08:00N 29°35' W 090°36'0 0.0
2017-Aug-10 07:30N 29°35' W 090°36'0 0.0
2017-Aug-10 06:47N 29°35' W 090°36'0 0.0
2017-Aug-10 06:30N 29°35' W 090°36'0 0.0
2017-Aug-10 05:54N 29°35' W 090°36'0 0.0
2017-Aug-10 05:30N 29°35' W 090°36'0 0.0
2017-Aug-10 05:00N 29°35' W 090°36'0 0.0
2017-Aug-10 04:28N 29°35' W 090°36'0 0.0
2017-Aug-10 03:57N 29°35' W 090°36'0 0.0
2017-Aug-10 03:27N 29°35' W 090°36'0 0.0
2017-Aug-10 03:00N 29°35' W 090°36'0 0.0
2017-Aug-10 02:30N 29°35' W 090°36'0 0.0
2017-Aug-10 02:00N 29°35' W 090°36'0 0.0
2017-Aug-10 01:30N 29°35' W 090°36'0 0.0
2017-Aug-10 00:59N 29°35' W 090°36'0 0.0
2017-Aug-10 00:30N 29°35' W 090°36'0 0.0
2017-Aug-09 23:55N 29°35' W 090°36'0 0.0
2017-Aug-09 23:30N 29°35' W 090°36'0 0.0
2017-Aug-09 23:00N 29°35' W 090°36'0 0.0
2017-Aug-09 22:30N 29°35' W 090°36'0 0.0
2017-Aug-09 21:57N 29°35' W 090°36'0 0.0
2017-Aug-09 21:30N 29°35' W 090°36'0 0.0
2017-Aug-09 21:00N 29°35' W 090°36'0 0.0
2017-Aug-09 20:30N 29°35' W 090°36'0 0.0
2017-Aug-09 20:00N 29°35' W 090°36'0 0.0
2017-Aug-09 17:32N 29°35' W 090°36'0 0.0
2017-Aug-09 17:30N 29°35' W 090°36'0 0.0
2017-Aug-09 16:56N 29°35' W 090°36'0 0.0
2017-Aug-09 16:28N 29°35' W 090°36'0 0.0
2017-Aug-09 16:00N 29°35' W 090°36'0 0.0
2017-Aug-09 15:25N 29°35' W 090°36'0 0.0
2017-Aug-09 14:58N 29°35' W 090°36'0 0.0
2017-Aug-09 14:29N 29°35' W 090°36'0 0.0
2017-Aug-09 14:00N 29°35' W 090°36'0 0.0
2017-Aug-09 13:26N 29°35' W 090°36'0 0.0
2017-Aug-09 13:00N 29°35' W 090°36'0 0.0
2017-Aug-09 12:30N 29°35' W 090°36'0 0.0
2017-Aug-09 12:00N 29°35' W 090°36'0 0.0
2017-Aug-09 11:29N 29°35' W 090°36'0 0.0
2017-Aug-09 10:57N 29°35' W 090°36'0 0.0
2017-Aug-09 10:30N 29°35' W 090°36'0 0.0
2017-Aug-09 10:00N 29°35' W 090°36'0 0.0
2017-Aug-09 09:29N 29°35' W 090°36'0 0.0
2017-Aug-09 08:56N 29°35' W 090°36'0 0.0
2017-Aug-09 08:28N 29°35' W 090°36'0 0.0
2017-Aug-09 08:00N 29°35' W 090°36'0 0.0
2017-Aug-09 07:25N 29°35' W 090°36'0 0.0
2017-Aug-09 07:00N 29°35' W 090°36'0 0.0
2017-Aug-09 06:23N 29°35' W 090°36'0 0.0
2017-Aug-09 06:00N 29°35' W 090°36'0 0.0
2017-Aug-09 05:30N 29°35' W 090°36'0 0.0
2017-Aug-09 05:00N 29°35' W 090°36'0 0.0
2017-Aug-09 04:30N 29°35' W 090°36'0 0.0
2017-Aug-09 04:00N 29°35' W 090°36'0 0.0
2017-Aug-09 03:30N 29°35' W 090°36'0 0.0
2017-Aug-09 03:00N 29°35' W 090°36'0 0.0
2017-Aug-09 02:28N 29°35' W 090°36'0 0.0
2017-Aug-09 01:58N 29°35' W 090°36'0 0.0
2017-Aug-09 01:30N 29°35' W 090°36'0 0.0
2017-Aug-09 00:59N 29°35' W 090°36'0 0.0
2017-Aug-09 00:30N 29°35' W 090°36'0 0.0
2017-Aug-09 00:00N 29°35' W 090°36'0 0.0
2017-Aug-08 23:30N 29°35' W 090°36'0 0.0
2017-Aug-08 23:00N 29°35' W 090°36'0 0.0
2017-Aug-08 22:30N 29°35' W 090°36'0 0.0
2017-Aug-08 21:59N 29°35' W 090°36'0 0.0
2017-Aug-08 21:30N 29°35' W 090°36'0 0.0
2017-Aug-08 20:57N 29°35' W 090°36'0 0.0
2017-Aug-08 20:24N 29°35' W 090°36'0 0.0
2017-Aug-08 19:50N 29°35' W 090°36'0 0.0
2017-Aug-08 19:29N 29°35' W 090°36'0 0.0
2017-Aug-08 18:54N 29°35' W 090°36'0 0.0
2017-Aug-08 18:15N 29°35' W 090°36'0 0.0
2017-Aug-08 17:49N 29°35' W 090°36'0 0.0
2017-Aug-08 17:30N 29°35' W 090°36'0 0.0
2017-Aug-08 16:59N 29°35' W 090°36'0 0.0
2017-Aug-08 16:28N 29°35' W 090°36'0 0.0
2017-Aug-08 15:58N 29°35' W 090°36'0 0.0
2017-Aug-08 14:48N 29°35' W 090°36'0 0.0
2017-Aug-08 14:30N 29°35' W 090°36'0 0.0
2017-Aug-08 14:00N 29°35' W 090°36'0 0.0
2017-Aug-08 13:29N 29°35' W 090°36'0 0.0
2017-Aug-08 12:59N 29°35' W 090°36'0 0.0
2017-Aug-08 12:30N 29°35' W 090°36'0 0.0
2017-Aug-08 12:00N 29°35' W 090°36'0 0.0
2017-Aug-08 11:30N 29°35' W 090°36'0 0.0
2017-Aug-08 10:57N 29°35' W 090°36'0 0.0
2017-Aug-08 10:30N 29°35' W 090°36'0 0.0
2017-Aug-08 10:00N 29°35' W 090°36'0 0.0
2017-Aug-08 09:29N 29°35' W 090°36'0 0.0
2017-Aug-08 08:59N 29°35' W 090°36'0 0.0
2017-Aug-08 08:30N 29°35' W 090°36'0 0.0
2017-Aug-08 07:54N 29°35' W 090°36'0 0.0
2017-Aug-08 07:29N 29°35' W 090°36'0 0.0
2017-Aug-08 07:00N 29°35' W 090°36'0 0.0
2017-Aug-08 06:29N 29°35' W 090°36'0 0.0
2017-Aug-08 06:00N 29°35' W 090°36'0 0.0
2017-Aug-08 05:30N 29°35' W 090°36'0 0.0
2017-Aug-08 04:59N 29°35' W 090°36'0 0.0
2017-Aug-08 04:29N 29°35' W 090°36'0 0.0
2017-Aug-08 03:59N 29°35' W 090°36'0 0.0
2017-Aug-08 03:30N 29°35' W 090°36'0 0.0
2017-Aug-08 03:00N 29°35' W 090°36'0 0.0
2017-Aug-08 02:30N 29°35' W 090°36'0 0.0
2017-Aug-08 02:00N 29°35' W 090°36'0 0.0
2017-Aug-08 01:30N 29°35' W 090°36'0 0.0
2017-Aug-08 01:00N 29°35' W 090°36'0 0.0
2017-Aug-08 00:29N 29°35' W 090°36'0 0.0
2017-Aug-08 00:00N 29°35' W 090°36'0 0.0
2017-Aug-07 23:30N 29°35' W 090°36'0 0.0
2017-Aug-07 22:04N 29°35' W 090°36'0 0.0
2017-Aug-07 21:36N 29°35' W 090°36'0 0.0
2017-Aug-07 19:31N 29°35' W 090°36'0 0.0
2017-Aug-07 19:30N 29°35' W 090°36'2 3.7
2017-Aug-07 19:00N 29°35' W 090°38'2 4.5
2017-Aug-07 18:30N 29°36' W 090°40'0 0.0
2017-Aug-07 18:00N 29°36' W 090°40'0 0.0
2017-Aug-07 17:30N 29°36' W 090°40'0 0.0
2017-Aug-07 16:58N 29°36' W 090°40'0 0.0
2017-Aug-07 16:30N 29°36' W 090°40'0 0.0
2017-Aug-07 16:00N 29°36' W 090°40'0 0.0
2017-Aug-07 15:26N 29°36' W 090°40'0 0.0
2017-Aug-07 15:00N 29°36' W 090°40'0 0.0
2017-Aug-07 14:29N 29°36' W 090°40'0 0.0
2017-Aug-07 13:56N 29°36' W 090°40'0 0.0
2017-Aug-07 13:31N 29°36' W 090°40'0 0.1
2017-Aug-07 13:01N 29°36' W 090°40'0 0.0
2017-Aug-07 12:30N 29°36' W 090°40'0 0.0
2017-Aug-07 12:00N 29°36' W 090°40'0 0.0
2017-Aug-07 11:30N 29°36' W 090°40'0 0.0
2017-Aug-07 11:01N 29°36' W 090°40'0 0.0
2017-Aug-07 10:30N 29°36' W 090°40'0 0.0
2017-Aug-07 10:01N 29°36' W 090°40'0 0.0
2017-Aug-07 09:31N 29°36' W 090°40'0 0.0
2017-Aug-07 09:00N 29°36' W 090°40'0 0.0
2017-Aug-07 08:31N 29°36' W 090°40'0 0.0
2017-Aug-07 08:01N 29°36' W 090°40'0 0.0
2017-Aug-07 07:30N 29°36' W 090°40'0 0.0
2017-Aug-07 07:00N 29°36' W 090°40'0 0.0
2017-Aug-07 06:30N 29°36' W 090°40'0 0.0
2017-Aug-07 06:01N 29°36' W 090°40'0 0.0
2017-Aug-07 05:30N 29°36' W 090°40'0 0.0
2017-Aug-07 05:01N 29°36' W 090°40'0 0.0
2017-Aug-07 04:30N 29°36' W 090°40'0 0.0
2017-Aug-07 04:00N 29°36' W 090°40'0 0.0
2017-Aug-07 03:30N 29°36' W 090°40'0 0.0
2017-Aug-07 03:01N 29°36' W 090°40'0 0.3
2017-Aug-07 02:30N 29°36' W 090°40'2 4.9
2017-Aug-07 02:01N 29°35' W 090°43'4 7.3
2017-Aug-07 01:31N 29°32' W 090°46'4 8.3
2017-Aug-07 01:00N 29°32' W 090°50'4 8.3
2017-Aug-07 00:30N 29°33' W 090°55'56 6.9
2017-Aug-06 16:20N 29°51' W 091°57'3 7.6
2017-Aug-06 16:00N 29°50' W 091°60'4 7.8
2017-Aug-06 15:31N 29°49' W 092°04'4 8.3
2017-Aug-06 15:01N 29°47' W 092°08'4 7.2
2017-Aug-06 14:31N 29°47' W 092°12'3 6.8
2017-Aug-06 14:01N 29°49' W 092°16'4 7.5
2017-Aug-06 13:29N 29°51' W 092°20'38 7.4
2017-Aug-06 08:22N 29°56' W 093°03'3 7.6
2017-Aug-06 08:00N 29°56' W 093°06'3 6.9
2017-Aug-06 07:31N 29°57' W 093°10'4 7.4
2017-Aug-06 07:01N 29°60' W 093°13'3 6.7
2017-Aug-06 06:31N 30°02' W 093°15'4 7.0
2017-Aug-06 06:00N 30°05' W 093°17'1 2.4
2017-Aug-06 05:30N 30°06' W 093°18'4 7.5
2017-Aug-06 05:01N 30°04' W 093°22'4 8.2
2017-Aug-06 04:31N 30°04' W 093°26'4 8.2
2017-Aug-06 04:00N 30°04' W 093°31'4 8.0
2017-Aug-06 03:30N 30°04' W 093°36'2 4.0
2017-Aug-06 03:00N 30°04' W 093°38'73 6.6
2017-Aug-05 16:03N 29°31' W 094°53'3 8.1
2017-Aug-05 15:42N 29°33' W 094°55'2 8.1
2017-Aug-05 15:30N 29°34' W 094°56'4 8.2
2017-Aug-05 14:58N 29°39' W 094°58'3 7.2
2017-Aug-05 14:30N 29°42' W 094°59'9 2.1
2017-Aug-05 10:11N 29°44' W 095°09'0 0.2
2017-Aug-05 09:57N 29°44' W 095°10'0 0.2
2017-Aug-05 09:27N 29°44' W 095°09'0 0.0
2017-Aug-05 02:23N 29°44' W 095°09'0 0.2
2017-Aug-05 01:57N 29°44' W 095°09'0 0.0
2017-Aug-05 01:25N 29°44' W 095°09'0 0.0
2017-Aug-05 00:56N 29°44' W 095°09'0 0.0
2017-Aug-05 00:29N 29°44' W 095°09'3 4.8
2017-Aug-04 23:58N 29°45' W 095°07'3 5.6
2017-Aug-04 23:30N 29°47' W 095°05'3 2.4
2017-Aug-04 22:28N 29°45' W 095°06'2 4.2
2017-Aug-04 21:57N 29°44' W 095°09'1 1.3
2017-Aug-04 21:30N 29°44' W 095°09'0 0.1
2017-Aug-04 20:59N 29°44' W 095°09'0 0.0
2017-Aug-04 20:30N 29°44' W 095°09'0 0.0
2017-Aug-04 17:39N 29°44' W 095°09'1 4.5
2017-Aug-04 17:29N 29°44' W 095°09'3 5.6
2017-Aug-04 17:00N 29°45' W 095°06'2 2.5
2017-Aug-04 16:21N 29°47' W 095°05'0 0.0
2017-Aug-04 16:00N 29°47' W 095°05'0 0.0
2017-Aug-04 15:30N 29°47' W 095°05'0 0.0
2017-Aug-04 15:00N 29°47' W 095°05'4 2.2
2017-Aug-04 13:20N 29°44' W 095°08'1 3.7
2017-Aug-04 12:57N 29°44' W 095°09'0 0.1
2017-Aug-04 11:41N 29°44' W 095°10'0 0.0
2017-Aug-04 06:36N 29°44' W 095°09'0 0.0
2017-Aug-04 06:24N 29°44' W 095°09'0 0.1
2017-Aug-04 06:00N 29°44' W 095°09'0 0.0
2017-Aug-04 05:25N 29°44' W 095°09'0 0.0
2017-Aug-04 00:51N 29°44' W 095°09'2 4.6
2017-Aug-04 00:30N 29°44' W 095°08'2 4.8
2017-Aug-04 00:00N 29°46' W 095°05'2 1.5
2017-Aug-03 22:54N 29°44' W 095°07'2 3.1
2017-Aug-03 22:09N 29°44' W 095°09'0 0.5
2017-Aug-03 21:57N 29°44' W 095°10'0 0.1
2017-Aug-03 21:27N 29°44' W 095°09'0 0.0
2017-Aug-03 21:00N 29°44' W 095°09'0 0.0
2017-Aug-03 20:26N 29°44' W 095°09'0 0.0
2017-Aug-03 18:06N 29°44' W 095°10'0 0.4
2017-Aug-03 17:59N 29°44' W 095°09'0 0.0
2017-Aug-03 15:01N 29°44' W 095°09'0 0.0
2017-Aug-03 11:40N 29°44' W 095°09'0 0.4
2017-Aug-03 11:19N 29°44' W 095°10'0 0.3
2017-Aug-03 10:59N 29°44' W 095°09'  
Track history (hours):
 
Tides and Currents Weather Stations Pressure Air Temp Water Temp Dewpoint Dewpoint Depression Visibility Wind Speed Wind Dir Waves Ship Positions

Aaron Joseph

Owner: AARON JOSEPH INC, GOLDEN MEADOW, LA. More information available from US FCC via Universal Licensing System and Coast Guard Vessel Documentation Center.

Last reported at 2017-Aug-13 10:41 UTC. Time now 2017-Sep-23 00:32 UTC.
Position N 30°04' W 093°38'.
Warning: this ship's position is 40 days out of date.

; draft 2.5 m.

Type: Tug. MMSI: 367028680.

Date/timePositionNaut miles runAvg speedWind from/ knotsBaromVisibWave heightAir tempDewpointWater temp
2017-Aug-13 10:41N 30°04' W 093°38'1 5.1
2017-Aug-13 10:27N 30°04' W 093°37'2 5.3
2017-Aug-13 10:00N 30°04' W 093°34'3 5.2
2017-Aug-13 09:30N 30°04' W 093°31'2 4.7
2017-Aug-13 09:01N 30°04' W 093°28'2 4.7
2017-Aug-13 08:31N 30°04' W 093°26'2 4.3
2017-Aug-13 08:01N 30°04' W 093°23'2 4.5
2017-Aug-13 07:30N 30°04' W 093°21'1 1.9
2017-Aug-13 07:01N 30°05' W 093°20'1 1.9
2017-Aug-13 06:31N 30°05' W 093°19'2 3.4
2017-Aug-13 06:00N 30°05' W 093°18'0 0.3
2017-Aug-13 05:31N 30°05' W 093°17'1 2.4
2017-Aug-13 05:01N 30°04' W 093°16'0 0.5
2017-Aug-13 04:31N 30°04' W 093°16'2 4.5
2017-Aug-13 04:01N 30°06' W 093°18'0 0.3
2017-Aug-13 03:31N 30°06' W 093°18'2 3.6
2017-Aug-13 03:01N 30°05' W 093°20'0 0.6
2017-Aug-13 02:30N 30°04' W 093°20'0 0.0
2017-Aug-13 02:01N 30°04' W 093°20'0 0.0
2017-Aug-13 01:31N 30°04' W 093°20'0 0.0
2017-Aug-13 01:00N 30°04' W 093°20'0 0.0
2017-Aug-13 00:30N 30°04' W 093°20'0 0.0
2017-Aug-13 00:01N 30°04' W 093°20'0 0.0
2017-Aug-12 23:30N 30°04' W 093°20'0 0.0
2017-Aug-12 23:00N 30°04' W 093°20'0 0.0
2017-Aug-12 22:31N 30°04' W 093°20'0 0.0
2017-Aug-12 22:00N 30°04' W 093°20'0 0.0
2017-Aug-12 21:31N 30°04' W 093°20'0 0.0
2017-Aug-12 21:01N 30°04' W 093°20'0 0.0
2017-Aug-12 20:31N 30°04' W 093°20'0 0.0
2017-Aug-12 20:01N 30°04' W 093°20'0 0.0
2017-Aug-12 19:30N 30°04' W 093°20'0 0.0
2017-Aug-12 19:01N 30°04' W 093°20'0 0.0
2017-Aug-12 18:31N 30°04' W 093°20'0 0.0
2017-Aug-12 18:01N 30°04' W 093°20'0 0.0
2017-Aug-12 17:31N 30°04' W 093°20'0 0.0
2017-Aug-12 17:00N 30°04' W 093°20'0 0.0
2017-Aug-12 16:31N 30°04' W 093°20'0 0.0
2017-Aug-12 16:01N 30°04' W 093°20'0 0.0
2017-Aug-12 15:31N 30°04' W 093°20'0 0.0
2017-Aug-12 15:01N 30°04' W 093°20'0 0.1
2017-Aug-12 14:30N 30°04' W 093°20'2 3.8
2017-Aug-12 14:01N 30°06' W 093°19'2 4.1
2017-Aug-12 13:30N 30°05' W 093°17'2 3.3
2017-Aug-12 13:01N 30°03' W 093°16'2 3.9
2017-Aug-12 12:31N 30°02' W 093°15'2 4.3
2017-Aug-12 12:01N 29°60' W 093°13'2 4.7
2017-Aug-12 11:31N 29°58' W 093°12'2 4.5
2017-Aug-12 11:00N 29°56' W 093°10'40 4.3
2017-Aug-12 01:45N 29°53' W 092°24'1 4.4
2017-Aug-12 01:27N 29°52' W 092°23'2 3.5
2017-Aug-12 01:00N 29°51' W 092°22'2 4.2
2017-Aug-12 00:31N 29°50' W 092°19'2 3.9
2017-Aug-12 00:01N 29°49' W 092°18'2 4.1
2017-Aug-11 23:31N 29°48' W 092°15'2 4.2
2017-Aug-11 23:01N 29°48' W 092°13'2 4.1
2017-Aug-11 22:31N 29°47' W 092°11'2 4.1
2017-Aug-11 22:01N 29°47' W 092°09'2 3.7
2017-Aug-11 21:31N 29°48' W 092°07'2 5.0
2017-Aug-11 21:00N 29°48' W 092°04'2 4.7
2017-Aug-11 20:31N 29°49' W 092°02'2 4.3
2017-Aug-11 20:01N 29°50' W 091°59'2 4.5
2017-Aug-11 19:29N 29°51' W 091°57'2 3.9
2017-Aug-11 19:00N 29°51' W 091°54'53 4.0
2017-Aug-11 05:52N 29°34' W 090°57'5 4.8
2017-Aug-11 04:49N 29°32' W 090°52'1 4.8
2017-Aug-11 04:30N 29°32' W 090°50'2 4.7
2017-Aug-11 04:00N 29°32' W 090°47'2 4.1
2017-Aug-11 03:31N 29°33' W 090°45'2 3.9
2017-Aug-11 03:01N 29°34' W 090°43'1 2.9
2017-Aug-11 02:31N 29°33' W 090°42'0 0.5
2017-Aug-11 02:01N 29°33' W 090°42'3 5.5
2017-Aug-11 01:31N 29°35' W 090°43'2 3.3
2017-Aug-11 01:01N 29°36' W 090°41'1 1.7
2017-Aug-11 00:31N 29°36' W 090°40'0 0.1
2017-Aug-11 00:00N 29°36' W 090°40'0 0.0
2017-Aug-10 23:30N 29°36' W 090°40'0 0.8
2017-Aug-10 23:00N 29°36' W 090°40'0 0.0
2017-Aug-10 22:30N 29°36' W 090°40'0 0.0
2017-Aug-10 22:00N 29°36' W 090°40'0 0.0
2017-Aug-10 21:30N 29°36' W 090°40'0 0.2
2017-Aug-10 21:00N 29°36' W 090°40'4 7.2
2017-Aug-10 20:31N 29°35' W 090°36'1 1.2
2017-Aug-10 20:00N 29°35' W 090°36'0 0.0
2017-Aug-10 19:30N 29°35' W 090°36'0 0.0
2017-Aug-10 19:00N 29°35' W 090°36'0 0.0
2017-Aug-10 18:30N 29°35' W 090°36'0 0.0
2017-Aug-10 17:56N 29°35' W 090°36'0 0.0
2017-Aug-10 17:30N 29°35' W 090°36'0 0.0
2017-Aug-10 17:00N 29°35' W 090°36'0 0.0
2017-Aug-10 16:30N 29°35' W 090°36'0 0.0
2017-Aug-10 16:00N 29°35' W 090°36'0 0.0
2017-Aug-10 15:28N 29°35' W 090°36'0 0.0
2017-Aug-10 14:45N 29°35' W 090°36'0 0.0
2017-Aug-10 14:29N 29°35' W 090°36'0 0.0
2017-Aug-10 14:00N 29°35' W 090°36'0 0.0
2017-Aug-10 13:21N 29°35' W 090°36'0 0.0
2017-Aug-10 12:54N 29°35' W 090°36'0 0.0
2017-Aug-10 12:28N 29°35' W 090°36'0 0.0
2017-Aug-10 11:58N 29°35' W 090°36'0 0.0
2017-Aug-10 11:29N 29°35' W 090°36'0 0.0
2017-Aug-10 10:58N 29°35' W 090°36'0 0.0
2017-Aug-10 10:26N 29°35' W 090°36'0 0.0
2017-Aug-10 09:58N 29°35' W 090°36'0 0.0
2017-Aug-10 09:30N 29°35' W 090°36'0 0.0
2017-Aug-10 09:00N 29°35' W 090°36'0 0.0
2017-Aug-10 08:30N 29°35' W 090°36'0 0.0
2017-Aug-10 08:00N 29°35' W 090°36'0 0.0
2017-Aug-10 07:30N 29°35' W 090°36'0 0.0
2017-Aug-10 06:47N 29°35' W 090°36'0 0.0
2017-Aug-10 06:30N 29°35' W 090°36'0 0.0
2017-Aug-10 05:54N 29°35' W 090°36'0 0.0
2017-Aug-10 05:30N 29°35' W 090°36'0 0.0
2017-Aug-10 05:00N 29°35' W 090°36'0 0.0
2017-Aug-10 04:28N 29°35' W 090°36'0 0.0
2017-Aug-10 03:57N 29°35' W 090°36'0 0.0
2017-Aug-10 03:27N 29°35' W 090°36'0 0.0
2017-Aug-10 03:00N 29°35' W 090°36'0 0.0
2017-Aug-10 02:30N 29°35' W 090°36'0 0.0
2017-Aug-10 02:00N 29°35' W 090°36'0 0.0
2017-Aug-10 01:30N 29°35' W 090°36'0 0.0
2017-Aug-10 00:59N 29°35' W 090°36'0 0.0
2017-Aug-10 00:30N 29°35' W 090°36'0 0.0
2017-Aug-09 23:55N 29°35' W 090°36'0 0.0
2017-Aug-09 23:30N 29°35' W 090°36'0 0.0
2017-Aug-09 23:00N 29°35' W 090°36'0 0.0
2017-Aug-09 22:30N 29°35' W 090°36'0 0.0
2017-Aug-09 21:57N 29°35' W 090°36'0 0.0
2017-Aug-09 21:30N 29°35' W 090°36'0 0.0
2017-Aug-09 21:00N 29°35' W 090°36'0 0.0
2017-Aug-09 20:30N 29°35' W 090°36'0 0.0
2017-Aug-09 20:00N 29°35' W 090°36'0 0.0
2017-Aug-09 17:32N 29°35' W 090°36'0 0.0
2017-Aug-09 17:30N 29°35' W 090°36'0 0.0
2017-Aug-09 16:56N 29°35' W 090°36'0 0.0
2017-Aug-09 16:28N 29°35' W 090°36'0 0.0
2017-Aug-09 16:00N 29°35' W 090°36'0 0.0
2017-Aug-09 15:25N 29°35' W 090°36'0 0.0
2017-Aug-09 14:58N 29°35' W 090°36'0 0.0
2017-Aug-09 14:29N 29°35' W 090°36'0 0.0
2017-Aug-09 14:00N 29°35' W 090°36'0 0.0
2017-Aug-09 13:26N 29°35' W 090°36'0 0.0
2017-Aug-09 13:00N 29°35' W 090°36'0 0.0
2017-Aug-09 12:30N 29°35' W 090°36'0 0.0
2017-Aug-09 12:00N 29°35' W 090°36'0 0.0
2017-Aug-09 11:29N 29°35' W 090°36'0 0.0
2017-Aug-09 10:57N 29°35' W 090°36'0 0.0
2017-Aug-09 10:30N 29°35' W 090°36'0 0.0
2017-Aug-09 10:00N 29°35' W 090°36'0 0.0
2017-Aug-09 09:29N 29°35' W 090°36'0 0.0
2017-Aug-09 08:56N 29°35' W 090°36'0 0.0
2017-Aug-09 08:28N 29°35' W 090°36'0 0.0
2017-Aug-09 08:00N 29°35' W 090°36'0 0.0
2017-Aug-09 07:25N 29°35' W 090°36'0 0.0
2017-Aug-09 07:00N 29°35' W 090°36'0 0.0
2017-Aug-09 06:23N 29°35' W 090°36'0 0.0
2017-Aug-09 06:00N 29°35' W 090°36'0 0.0
2017-Aug-09 05:30N 29°35' W 090°36'0 0.0
2017-Aug-09 05:00N 29°35' W 090°36'0 0.0
2017-Aug-09 04:30N 29°35' W 090°36'0 0.0
2017-Aug-09 04:00N 29°35' W 090°36'0 0.0
2017-Aug-09 03:30N 29°35' W 090°36'0 0.0
2017-Aug-09 03:00N 29°35' W 090°36'0 0.0
2017-Aug-09 02:28N 29°35' W 090°36'0 0.0
2017-Aug-09 01:58N 29°35' W 090°36'0 0.0
2017-Aug-09 01:30N 29°35' W 090°36'0 0.0
2017-Aug-09 00:59N 29°35' W 090°36'0 0.0
2017-Aug-09 00:30N 29°35' W 090°36'0 0.0
2017-Aug-09 00:00N 29°35' W 090°36'0 0.0
2017-Aug-08 23:30N 29°35' W 090°36'0 0.0
2017-Aug-08 23:00N 29°35' W 090°36'0 0.0
2017-Aug-08 22:30N 29°35' W 090°36'0 0.0
2017-Aug-08 21:59N 29°35' W 090°36'0 0.0
2017-Aug-08 21:30N 29°35' W 090°36'0 0.0
2017-Aug-08 20:57N 29°35' W 090°36'0 0.0
2017-Aug-08 20:24N 29°35' W 090°36'0 0.0
2017-Aug-08 19:50N 29°35' W 090°36'0 0.0
2017-Aug-08 19:29N 29°35' W 090°36'0 0.0
2017-Aug-08 18:54N 29°35' W 090°36'0 0.0
2017-Aug-08 18:15N 29°35' W 090°36'0 0.0
2017-Aug-08 17:49N 29°35' W 090°36'0 0.0
2017-Aug-08 17:30N 29°35' W 090°36'0 0.0
2017-Aug-08 16:59N 29°35' W 090°36'0 0.0
2017-Aug-08 16:28N 29°35' W 090°36'0 0.0
2017-Aug-08 15:58N 29°35' W 090°36'0 0.0
2017-Aug-08 14:48N 29°35' W 090°36'0 0.0
2017-Aug-08 14:30N 29°35' W 090°36'0 0.0
2017-Aug-08 14:00N 29°35' W 090°36'0 0.0
2017-Aug-08 13:29N 29°35' W 090°36'0 0.0
2017-Aug-08 12:59N 29°35' W 090°36'0 0.0
2017-Aug-08 12:30N 29°35' W 090°36'0 0.0
2017-Aug-08 12:00N 29°35' W 090°36'0 0.0
2017-Aug-08 11:30N 29°35' W 090°36'0 0.0
2017-Aug-08 10:57N 29°35' W 090°36'0 0.0
2017-Aug-08 10:30N 29°35' W 090°36'0 0.0
2017-Aug-08 10:00N 29°35' W 090°36'0 0.0
2017-Aug-08 09:29N 29°35' W 090°36'0 0.0
2017-Aug-08 08:59N 29°35' W 090°36'0 0.0
2017-Aug-08 08:30N 29°35' W 090°36'0 0.0
2017-Aug-08 07:54N 29°35' W 090°36'0 0.0
2017-Aug-08 07:29N 29°35' W 090°36'0 0.0
2017-Aug-08 07:00N 29°35' W 090°36'0 0.0
2017-Aug-08 06:29N 29°35' W 090°36'0 0.0
2017-Aug-08 06:00N 29°35' W 090°36'0 0.0
2017-Aug-08 05:30N 29°35' W 090°36'0 0.0
2017-Aug-08 04:59N 29°35' W 090°36'0 0.0
2017-Aug-08 04:29N 29°35' W 090°36'0 0.0
2017-Aug-08 03:59N 29°35' W 090°36'0 0.0
2017-Aug-08 03:30N 29°35' W 090°36'0 0.0
2017-Aug-08 03:00N 29°35' W 090°36'0 0.0
2017-Aug-08 02:30N 29°35' W 090°36'0 0.0
2017-Aug-08 02:00N 29°35' W 090°36'0 0.0
2017-Aug-08 01:30N 29°35' W 090°36'0 0.0
2017-Aug-08 01:00N 29°35' W 090°36'0 0.0
2017-Aug-08 00:29N 29°35' W 090°36'0 0.0
2017-Aug-08 00:00N 29°35' W 090°36'0 0.0
2017-Aug-07 23:30N 29°35' W 090°36'0 0.0
2017-Aug-07 22:04N 29°35' W 090°36'0 0.0
2017-Aug-07 21:36N 29°35' W 090°36'0 0.0
2017-Aug-07 19:31N 29°35' W 090°36'0 0.0
2017-Aug-07 19:30N 29°35' W 090°36'2 3.7
2017-Aug-07 19:00N 29°35' W 090°38'2 4.5
2017-Aug-07 18:30N 29°36' W 090°40'0 0.0
2017-Aug-07 18:00N 29°36' W 090°40'0 0.0
2017-Aug-07 17:30N 29°36' W 090°40'0 0.0
2017-Aug-07 16:58N 29°36' W 090°40'0 0.0
2017-Aug-07 16:30N 29°36' W 090°40'0 0.0
2017-Aug-07 16:00N 29°36' W 090°40'0 0.0
2017-Aug-07 15:26N 29°36' W 090°40'0 0.0
2017-Aug-07 15:00N 29°36' W 090°40'0 0.0
2017-Aug-07 14:29N 29°36' W 090°40'0 0.0
2017-Aug-07 13:56N 29°36' W 090°40'0 0.0
2017-Aug-07 13:31N 29°36' W 090°40'0 0.1
2017-Aug-07 13:01N 29°36' W 090°40'0 0.0
2017-Aug-07 12:30N 29°36' W 090°40'0 0.0
2017-Aug-07 12:00N 29°36' W 090°40'0 0.0
2017-Aug-07 11:30N 29°36' W 090°40'0 0.0
2017-Aug-07 11:01N 29°36' W 090°40'0 0.0
2017-Aug-07 10:30N 29°36' W 090°40'0 0.0
2017-Aug-07 10:01N 29°36' W 090°40'0 0.0
2017-Aug-07 09:31N 29°36' W 090°40'0 0.0
2017-Aug-07 09:00N 29°36' W 090°40'0 0.0
2017-Aug-07 08:31N 29°36' W 090°40'0 0.0
2017-Aug-07 08:01N 29°36' W 090°40'0 0.0
2017-Aug-07 07:30N 29°36' W 090°40'0 0.0
2017-Aug-07 07:00N 29°36' W 090°40'0 0.0
2017-Aug-07 06:30N 29°36' W 090°40'0 0.0
2017-Aug-07 06:01N 29°36' W 090°40'0 0.0
2017-Aug-07 05:30N 29°36' W 090°40'0 0.0
2017-Aug-07 05:01N 29°36' W 090°40'0 0.0
2017-Aug-07 04:30N 29°36' W 090°40'0 0.0
2017-Aug-07 04:00N 29°36' W 090°40'0 0.0
2017-Aug-07 03:30N 29°36' W 090°40'0 0.0
2017-Aug-07 03:01N 29°36' W 090°40'0 0.3
2017-Aug-07 02:30N 29°36' W 090°40'2 4.9
2017-Aug-07 02:01N 29°35' W 090°43'4 7.3
2017-Aug-07 01:31N 29°32' W 090°46'4 8.3
2017-Aug-07 01:00N 29°32' W 090°50'4 8.3
2017-Aug-07 00:30N 29°33' W 090°55'56 6.9
2017-Aug-06 16:20N 29°51' W 091°57'3 7.6
2017-Aug-06 16:00N 29°50' W 091°60'4 7.8
2017-Aug-06 15:31N 29°49' W 092°04'4 8.3
2017-Aug-06 15:01N 29°47' W 092°08'4 7.2
2017-Aug-06 14:31N 29°47' W 092°12'3 6.8
2017-Aug-06 14:01N 29°49' W 092°16'4 7.5
2017-Aug-06 13:29N 29°51' W 092°20'38 7.4
2017-Aug-06 08:22N 29°56' W 093°03'3 7.6
2017-Aug-06 08:00N 29°56' W 093°06'3 6.9
2017-Aug-06 07:31N 29°57' W 093°10'4 7.4
2017-Aug-06 07:01N 29°60' W 093°13'3 6.7
2017-Aug-06 06:31N 30°02' W 093°15'4 7.0
2017-Aug-06 06:00N 30°05' W 093°17'1 2.4
2017-Aug-06 05:30N 30°06' W 093°18'4 7.5
2017-Aug-06 05:01N 30°04' W 093°22'4 8.2
2017-Aug-06 04:31N 30°04' W 093°26'4 8.2
2017-Aug-06 04:00N 30°04' W 093°31'4 8.0
2017-Aug-06 03:30N 30°04' W 093°36'2 4.0
2017-Aug-06 03:00N 30°04' W 093°38'73 6.6
2017-Aug-05 16:03N 29°31' W 094°53'3 8.1
2017-Aug-05 15:42N 29°33' W 094°55'2 8.1
2017-Aug-05 15:30N 29°34' W 094°56'4 8.2
2017-Aug-05 14:58N 29°39' W 094°58'3 7.2
2017-Aug-05 14:30N 29°42' W 094°59'9 2.1
2017-Aug-05 10:11N 29°44' W 095°09'0 0.2
2017-Aug-05 09:57N 29°44' W 095°10'0 0.2
2017-Aug-05 09:27N 29°44' W 095°09'0 0.0
2017-Aug-05 02:23N 29°44' W 095°09'0 0.2
2017-Aug-05 01:57N 29°44' W 095°09'0 0.0
2017-Aug-05 01:25N 29°44' W 095°09'0 0.0
2017-Aug-05 00:56N 29°44' W 095°09'0 0.0
2017-Aug-05 00:29N 29°44' W 095°09'3 4.8
2017-Aug-04 23:58N 29°45' W 095°07'3 5.6
2017-Aug-04 23:30N 29°47' W 095°05'3 2.4
2017-Aug-04 22:28N 29°45' W 095°06'2 4.2
2017-Aug-04 21:57N 29°44' W 095°09'1 1.3
2017-Aug-04 21:30N 29°44' W 095°09'0 0.1
2017-Aug-04 20:59N 29°44' W 095°09'0 0.0
2017-Aug-04 20:30N 29°44' W 095°09'0 0.0
2017-Aug-04 17:39N 29°44' W 095°09'1 4.5
2017-Aug-04 17:29N 29°44' W 095°09'3 5.6
2017-Aug-04 17:00N 29°45' W 095°06'2 2.5
2017-Aug-04 16:21N 29°47' W 095°05'0 0.0
2017-Aug-04 16:00N 29°47' W 095°05'0 0.0
2017-Aug-04 15:30N 29°47' W 095°05'0 0.0
2017-Aug-04 15:00N 29°47' W 095°05'4 2.2
2017-Aug-04 13:20N 29°44' W 095°08'1 3.7
2017-Aug-04 12:57N 29°44' W 095°09'0 0.1
2017-Aug-04 11:41N 29°44' W 095°10'0 0.0
2017-Aug-04 06:36N 29°44' W 095°09'0 0.0
2017-Aug-04 06:24N 29°44' W 095°09'0 0.1
2017-Aug-04 06:00N 29°44' W 095°09'0 0.0
2017-Aug-04 05:25N 29°44' W 095°09'0 0.0
2017-Aug-04 00:51N 29°44' W 095°09'2 4.6
2017-Aug-04 00:30N 29°44' W 095°08'2 4.8
2017-Aug-04 00:00N 29°46' W 095°05'2 1.5
2017-Aug-03 22:54N 29°44' W 095°07'2 3.1
2017-Aug-03 22:09N 29°44' W 095°09'0 0.5
2017-Aug-03 21:57N 29°44' W 095°10'0 0.1
2017-Aug-03 21:27N 29°44' W 095°09'0 0.0
2017-Aug-03 21:00N 29°44' W 095°09'0 0.0
2017-Aug-03 20:26N 29°44' W 095°09'0 0.0
2017-Aug-03 18:06N 29°44' W 095°10'0 0.4
2017-Aug-03 17:59N 29°44' W 095°09'0 0.0
2017-Aug-03 15:01N 29°44' W 095°09'0 0.0
2017-Aug-03 11:40N 29°44' W 095°09'0 0.4
2017-Aug-03 11:19N 29°44' W 095°10'0 0.3
2017-Aug-03 10:59N 29°44' W 095°09'  

Dump ship's entire track history